sensor_id;sensor_type;location;lat;lon;timestamp;pressure;altitude;pressure_sealevel;temperature;humidity
29825;BME280;16713;52.916;12.834;2022-12-11T00:01:18;100561.91;;;-0.49;68.07
29825;BME280;16713;52.916;12.834;2022-12-11T00:03:46;100552.78;;;-0.53;67.17
29825;BME280;16713;52.916;12.834;2022-12-11T00:06:15;100556.00;;;-0.51;66.82
29825;BME280;16713;52.916;12.834;2022-12-11T00:08:43;100544.22;;;-0.60;68.26
29825;BME280;16713;52.916;12.834;2022-12-11T00:11:14;100555.47;;;-0.53;68.55
29825;BME280;16713;52.916;12.834;2022-12-11T00:13:41;100554.03;;;-0.46;66.88
29825;BME280;16713;52.916;12.834;2022-12-11T00:16:08;100550.78;;;-0.43;67.80
29825;BME280;16713;52.916;12.834;2022-12-11T00:18:35;100550.56;;;-0.46;67.77
29825;BME280;16713;52.916;12.834;2022-12-11T00:21:09;100550.44;;;-0.36;66.64
29825;BME280;16713;52.916;12.834;2022-12-11T00:23:36;100559.94;;;-0.20;66.37
29825;BME280;16713;52.916;12.834;2022-12-11T00:26:08;100554.97;;;-0.32;66.60
29825;BME280;16713;52.916;12.834;2022-12-11T00:28:35;100551.25;;;-0.36;67.28
29825;BME280;16713;52.916;12.834;2022-12-11T00:31:06;100551.38;;;-0.22;65.63
29825;BME280;16713;52.916;12.834;2022-12-11T00:33:33;100554.38;;;-0.52;66.40
29825;BME280;16713;52.916;12.834;2022-12-11T00:36:00;100550.38;;;-0.31;67.66
29825;BME280;16713;52.916;12.834;2022-12-11T00:38:27;100546.91;;;-0.32;66.88
29825;BME280;16713;52.916;12.834;2022-12-11T00:40:57;100542.00;;;-0.53;67.19
29825;BME280;16713;52.916;12.834;2022-12-11T00:43:24;100550.94;;;-0.34;68.02
29825;BME280;16713;52.916;12.834;2022-12-11T00:45:50;100546.09;;;-0.32;66.40
29825;BME280;16713;52.916;12.834;2022-12-11T00:48:17;100542.44;;;-0.41;67.38
29825;BME280;16713;52.916;12.834;2022-12-11T00:50:43;100550.59;;;-0.51;67.95
29825;BME280;16713;52.916;12.834;2022-12-11T00:53:10;100554.56;;;-0.44;66.93
29825;BME280;16713;52.916;12.834;2022-12-11T00:55:38;100554.22;;;-0.37;67.14
29825;BME280;16713;52.916;12.834;2022-12-11T00:58:05;100567.34;;;-0.31;66.08
29825;BME280;16713;52.916;12.834;2022-12-11T01:00:31;100560.00;;;-0.77;67.02
29825;BME280;16713;52.916;12.834;2022-12-11T01:02:58;100558.69;;;-0.80;67.14
29825;BME280;16713;52.916;12.834;2022-12-11T01:05:25;100563.88;;;-0.89;67.90
29825;BME280;16713;52.916;12.834;2022-12-11T01:07:51;100554.69;;;-0.88;68.48
29825;BME280;16713;52.916;12.834;2022-12-11T01:10:18;100563.06;;;-0.89;67.52
29825;BME280;16713;52.916;12.834;2022-12-11T01:13:04;100563.78;;;-0.78;67.76
29825;BME280;16713;52.916;12.834;2022-12-11T01:15:37;100555.97;;;-0.75;66.83
29825;BME280;16713;52.916;12.834;2022-12-11T01:18:08;100565.47;;;-0.88;68.46
29825;BME280;16713;52.916;12.834;2022-12-11T01:20:37;100554.81;;;-0.98;68.56
29825;BME280;16713;52.916;12.834;2022-12-11T01:23:05;100551.56;;;-0.66;68.06
29825;BME280;16713;52.916;12.834;2022-12-11T01:25:34;100551.66;;;-0.76;68.99
29825;BME280;16713;52.916;12.834;2022-12-11T01:28:03;100551.56;;;-0.66;68.45
29825;BME280;16713;52.916;12.834;2022-12-11T01:30:30;100552.13;;;-0.69;68.98
29825;BME280;16713;52.916;12.834;2022-12-11T01:32:57;100557.34;;;-0.54;67.77
29825;BME280;16713;52.916;12.834;2022-12-11T01:35:24;100555.41;;;-0.48;68.28
29825;BME280;16713;52.916;12.834;2022-12-11T01:37:50;100551.97;;;-0.54;67.50
29825;BME280;16713;52.916;12.834;2022-12-11T01:40:18;100557.53;;;-0.45;68.65
29825;BME280;16713;52.916;12.834;2022-12-11T01:42:45;100547.56;;;-0.45;68.32
29825;BME280;16713;52.916;12.834;2022-12-11T01:47:52;100542.34;;;-0.60;69.03
29825;BME280;16713;52.916;12.834;2022-12-11T01:50:21;100541.53;;;-0.60;68.70
29825;BME280;16713;52.916;12.834;2022-12-11T01:52:48;100541.25;;;-0.59;68.48
29825;BME280;16713;52.916;12.834;2022-12-11T01:55:15;100545.22;;;-0.51;67.26
29825;BME280;16713;52.916;12.834;2022-12-11T01:57:44;100541.72;;;-0.52;67.57
29825;BME280;16713;52.916;12.834;2022-12-11T02:00:12;100540.97;;;-0.57;68.50
29825;BME280;16713;52.916;12.834;2022-12-11T02:02:39;100544.03;;;-0.40;67.41
29825;BME280;16713;52.916;12.834;2022-12-11T02:05:07;100544.25;;;-0.37;67.32
29825;BME280;16713;52.916;12.834;2022-12-11T02:07:56;100547.88;;;-0.46;67.80
29825;BME280;16713;52.916;12.834;2022-12-11T02:10:34;100545.78;;;-0.54;67.05
29825;BME280;16713;52.916;12.834;2022-12-11T02:13:12;100545.91;;;-0.41;67.83
29825;BME280;16713;52.916;12.834;2022-12-11T02:18:28;100549.69;;;-0.42;66.55
29825;BME280;16713;52.916;12.834;2022-12-11T02:21:11;100556.28;;;-0.29;66.85
29825;BME280;16713;52.916;12.834;2022-12-11T02:29:07;100559.22;;;-0.49;67.08
29825;BME280;16713;52.916;12.834;2022-12-11T02:31:40;100560.16;;;-0.64;67.13
29825;BME280;16713;52.916;12.834;2022-12-11T02:34:20;100554.44;;;-0.57;66.91
29825;BME280;16713;52.916;12.834;2022-12-11T02:36:51;100557.88;;;-0.52;67.44
29825;BME280;16713;52.916;12.834;2022-12-11T02:39:20;100557.13;;;-0.57;67.55
29825;BME280;16713;52.916;12.834;2022-12-11T02:41:50;100561.22;;;-0.65;66.91
29825;BME280;16713;52.916;12.834;2022-12-11T02:44:21;100560.72;;;-0.67;67.60
29825;BME280;16713;52.916;12.834;2022-12-11T02:46:49;100557.06;;;-0.52;66.99
29825;BME280;16713;52.916;12.834;2022-12-11T02:49:17;100558.88;;;-0.43;66.18
29825;BME280;16713;52.916;12.834;2022-12-11T02:51:44;100559.22;;;-0.49;66.55
29825;BME280;16713;52.916;12.834;2022-12-11T02:54:15;100548.16;;;-0.48;66.21
29825;BME280;16713;52.916;12.834;2022-12-11T02:56:45;100548.44;;;-0.49;65.90
29825;BME280;16713;52.916;12.834;2022-12-11T02:59:17;100549.41;;;-0.40;65.63
29825;BME280;16713;52.916;12.834;2022-12-11T03:01:45;100550.56;;;-0.46;66.08
29825;BME280;16713;52.916;12.834;2022-12-11T03:04:12;100546.25;;;-0.47;66.29
29825;BME280;16713;52.916;12.834;2022-12-11T03:06:43;100553.13;;;-0.36;66.37
29825;BME280;16713;52.916;12.834;2022-12-11T03:09:11;100546.19;;;-0.42;66.13
29825;BME280;16713;52.916;12.834;2022-12-11T03:11:38;100551.69;;;-0.52;67.28
29825;BME280;16713;52.916;12.834;2022-12-11T03:14:05;100553.47;;;-0.71;66.72
29825;BME280;16713;52.916;12.834;2022-12-11T03:16:38;100552.91;;;-0.68;67.22
29825;BME280;16713;52.916;12.834;2022-12-11T03:22:02;100553.91;;;-0.59;67.33
29825;BME280;16713;52.916;12.834;2022-12-11T03:24:40;100562.69;;;-0.49;67.11
29825;BME280;16713;52.916;12.834;2022-12-11T03:29:56;100556.38;;;-0.92;67.78
29825;BME280;16713;52.916;12.834;2022-12-11T03:32:28;100546.69;;;-0.64;67.04
29825;BME280;16713;52.916;12.834;2022-12-11T03:35:08;100555.88;;;-0.70;66.84
29825;BME280;16713;52.916;12.834;2022-12-11T03:37:40;100544.84;;;-0.68;67.57
29825;BME280;16713;52.916;12.834;2022-12-11T03:40:12;100548.97;;;-0.52;67.33
29825;BME280;16713;52.916;12.834;2022-12-11T03:42:43;100552.50;;;-0.52;67.44
29825;BME280;16713;52.916;12.834;2022-12-11T03:45:11;100551.34;;;-0.46;66.94
29825;BME280;16713;52.916;12.834;2022-12-11T03:47:39;100543.66;;;-0.57;67.12
29825;BME280;16713;52.916;12.834;2022-12-11T03:50:10;100528.03;;;-0.84;67.85
29825;BME280;16713;52.916;12.834;2022-12-11T03:52:40;100534.13;;;-0.73;67.77
29825;BME280;16713;52.916;12.834;2022-12-11T03:55:13;100546.22;;;-0.71;67.42
29825;BME280;16713;52.916;12.834;2022-12-11T03:57:40;100553.53;;;-0.76;68.39
29825;BME280;16713;52.916;12.834;2022-12-11T04:00:10;100547.75;;;-0.94;68.31
29825;BME280;16713;52.916;12.834;2022-12-11T04:02:38;100547.72;;;-0.60;66.69
29825;BME280;16713;52.916;12.834;2022-12-11T04:05:05;100541.81;;;-0.62;67.61
29825;BME280;16713;52.916;12.834;2022-12-11T04:07:31;100545.13;;;-0.41;66.68
29825;BME280;16713;52.916;12.834;2022-12-11T04:09:58;100540.50;;;-0.41;66.41
29825;BME280;16713;52.916;12.834;2022-12-11T04:12:25;100531.44;;;-0.73;67.13
29825;BME280;16713;52.916;12.834;2022-12-11T04:14:51;100535.31;;;-0.56;66.99
29825;BME280;16713;52.916;12.834;2022-12-11T04:17:32;100529.69;;;-0.59;67.52
29825;BME280;16713;52.916;12.834;2022-12-11T04:20:17;100532.91;;;-0.57;66.95
29825;BME280;16713;52.916;12.834;2022-12-11T04:23:04;100544.00;;;-0.64;66.70
29825;BME280;16713;52.916;12.834;2022-12-11T04:25:49;100546.75;;;-0.69;68.09
29825;BME280;16713;52.916;12.834;2022-12-11T04:28:16;100543.44;;;-0.61;67.55
29825;BME280;16713;52.916;12.834;2022-12-11T04:30:47;100547.19;;;-0.62;67.33
29825;BME280;16713;52.916;12.834;2022-12-11T04:33:14;100542.34;;;-0.60;67.21
29825;BME280;16713;52.916;12.834;2022-12-11T04:35:41;100536.63;;;-0.82;66.63
29825;BME280;16713;52.916;12.834;2022-12-11T04:38:07;100529.78;;;-0.69;66.42
29825;BME280;16713;52.916;12.834;2022-12-11T04:40:33;100527.38;;;-0.71;68.19
29825;BME280;16713;52.916;12.834;2022-12-11T04:43:00;100531.31;;;-0.63;67.16
29825;BME280;16713;52.916;12.834;2022-12-11T04:45:26;100528.13;;;-0.94;68.46
29825;BME280;16713;52.916;12.834;2022-12-11T04:47:53;100534.34;;;-0.70;67.31
29825;BME280;16713;52.916;12.834;2022-12-11T04:50:20;100549.16;;;-0.96;68.44
29825;BME280;16713;52.916;12.834;2022-12-11T04:52:46;100550.25;;;-1.02;67.87
29825;BME280;16713;52.916;12.834;2022-12-11T04:55:12;100549.09;;;-0.91;67.44
29825;BME280;16713;52.916;12.834;2022-12-11T04:57:39;100548.97;;;-1.10;67.04
29825;BME280;16713;52.916;12.834;2022-12-11T05:00:09;100550.84;;;-1.10;67.06
29825;BME280;16713;52.916;12.834;2022-12-11T05:02:37;100553.81;;;-1.12;67.12
29825;BME280;16713;52.916;12.834;2022-12-11T05:05:04;100548.66;;;-1.03;66.31
29825;BME280;16713;52.916;12.834;2022-12-11T05:07:31;100558.03;;;-1.01;66.00
29825;BME280;16713;52.916;12.834;2022-12-11T05:09:58;100556.09;;;-1.24;66.55
29825;BME280;16713;52.916;12.834;2022-12-11T05:12:24;100555.91;;;-1.37;66.73
29825;BME280;16713;52.916;12.834;2022-12-11T05:14:52;100559.66;;;-1.33;66.32
29825;BME280;16713;52.916;12.834;2022-12-11T05:17:19;100558.88;;;-1.39;66.44
29825;BME280;16713;52.916;12.834;2022-12-11T05:19:47;100550.25;;;-1.41;66.17
29825;BME280;16713;52.916;12.834;2022-12-11T05:22:14;100570.22;;;-1.08;66.11
29825;BME280;16713;52.916;12.834;2022-12-11T05:24:41;100560.41;;;-1.28;65.57
29825;BME280;16713;52.916;12.834;2022-12-11T05:27:08;100553.47;;;-1.34;66.30
29825;BME280;16713;52.916;12.834;2022-12-11T05:29:35;100545.69;;;-1.40;66.61
29825;BME280;16713;52.916;12.834;2022-12-11T05:32:02;100551.81;;;-1.30;66.26
29825;BME280;16713;52.916;12.834;2022-12-11T05:34:28;100553.09;;;-1.22;66.11
29825;BME280;16713;52.916;12.834;2022-12-11T05:36:55;100537.34;;;-1.39;66.59
29825;BME280;16713;52.916;12.834;2022-12-11T05:39:21;100538.28;;;-1.20;65.71
29825;BME280;16713;52.916;12.834;2022-12-11T05:41:48;100532.78;;;-1.38;65.81
29825;BME280;16713;52.916;12.834;2022-12-11T05:44:14;100539.47;;;-1.36;66.58
29825;BME280;16713;52.916;12.834;2022-12-11T05:46:40;100527.09;;;-1.32;65.61
29825;BME280;16713;52.916;12.834;2022-12-11T05:49:09;100531.28;;;-1.16;65.91
29825;BME280;16713;52.916;12.834;2022-12-11T05:51:36;100534.44;;;-1.09;65.50
29825;BME280;16713;52.916;12.834;2022-12-11T05:54:04;100541.22;;;-1.16;66.29
29825;BME280;16713;52.916;12.834;2022-12-11T05:56:32;100527.13;;;-1.03;65.27
29825;BME280;16713;52.916;12.834;2022-12-11T05:59:00;100533.28;;;-0.98;65.35
29825;BME280;16713;52.916;12.834;2022-12-11T06:01:36;100534.06;;;-0.97;64.76
29825;BME280;16713;52.916;12.834;2022-12-11T06:04:04;100532.72;;;-0.95;64.94
29825;BME280;16713;52.916;12.834;2022-12-11T06:06:32;100538.09;;;-0.95;65.16
29825;BME280;16713;52.916;12.834;2022-12-11T06:08:59;100535.91;;;-0.93;64.46
29825;BME280;16713;52.916;12.834;2022-12-11T06:11:29;100538.78;;;-0.84;64.93
29825;BME280;16713;52.916;12.834;2022-12-11T06:13:56;100536.00;;;-1.03;65.46
29825;BME280;16713;52.916;12.834;2022-12-11T06:16:23;100534.34;;;-0.99;65.63
29825;BME280;16713;52.916;12.834;2022-12-11T06:18:49;100531.53;;;-0.83;65.97
29825;BME280;16713;52.916;12.834;2022-12-11T06:21:20;100535.50;;;-0.76;64.86
29825;BME280;16713;52.916;12.834;2022-12-11T06:23:49;100531.28;;;-0.87;65.09
29825;BME280;16713;52.916;12.834;2022-12-11T06:26:17;100520.16;;;-1.04;64.48
29825;BME280;16713;52.916;12.834;2022-12-11T06:28:44;100530.53;;;-0.93;64.88
29825;BME280;16713;52.916;12.834;2022-12-11T06:31:12;100519.13;;;-0.85;63.70
29825;BME280;16713;52.916;12.834;2022-12-11T06:33:40;100517.53;;;-0.86;64.43
29825;BME280;16713;52.916;12.834;2022-12-11T06:36:10;100516.28;;;-0.93;64.19
29825;BME280;16713;52.916;12.834;2022-12-11T06:38:37;100512.84;;;-1.04;63.19
29825;BME280;16713;52.916;12.834;2022-12-11T06:41:05;100518.19;;;-0.99;63.39
29825;BME280;16713;52.916;12.834;2022-12-11T06:43:33;100515.59;;;-1.09;63.25
29825;BME280;16713;52.916;12.834;2022-12-11T06:46:11;100520.97;;;-1.09;63.84
29825;BME280;16713;52.916;12.834;2022-12-11T06:48:38;100516.41;;;-1.08;63.51
29825;BME280;16713;52.916;12.834;2022-12-11T06:51:10;100522.03;;;-1.05;63.55
29825;BME280;16713;52.916;12.834;2022-12-11T06:53:37;100525.09;;;-0.88;62.97
29825;BME280;16713;52.916;12.834;2022-12-11T06:56:06;100518.41;;;-0.90;63.30
29825;BME280;16713;52.916;12.834;2022-12-11T06:58:34;100515.16;;;-1.21;63.75
29825;BME280;16713;52.916;12.834;2022-12-11T07:01:02;100517.78;;;-1.11;63.62
29825;BME280;16713;52.916;12.834;2022-12-11T07:03:29;100520.56;;;-0.92;63.62
29825;BME280;16713;52.916;12.834;2022-12-11T07:06:00;100510.72;;;-1.07;63.24
29825;BME280;16713;52.916;12.834;2022-12-11T07:08:28;100508.31;;;-1.08;62.74
29825;BME280;16713;52.916;12.834;2022-12-11T07:11:01;100518.19;;;-0.99;63.01
29825;BME280;16713;52.916;12.834;2022-12-11T07:13:28;100521.56;;;-1.17;62.91
29825;BME280;16713;52.916;12.834;2022-12-11T07:15:56;100520.66;;;-1.02;63.46
29825;BME280;16713;52.916;12.834;2022-12-11T07:18:23;100507.91;;;-1.20;63.12
29825;BME280;16713;52.916;12.834;2022-12-11T07:20:49;100513.19;;;-1.10;62.70
29825;BME280;16713;52.916;12.834;2022-12-11T07:23:16;100520.59;;;-1.26;63.59
29825;BME280;16713;52.916;12.834;2022-12-11T07:25:42;100526.69;;;-1.15;62.94
29825;BME280;16713;52.916;12.834;2022-12-11T07:28:09;100522.59;;;-1.08;63.27
29825;BME280;16713;52.916;12.834;2022-12-11T07:30:41;100537.69;;;-1.12;63.21
29825;BME280;16713;52.916;12.834;2022-12-11T07:33:08;100526.31;;;-1.04;63.39
29825;BME280;16713;52.916;12.834;2022-12-11T07:35:35;100530.72;;;-1.13;63.83
29825;BME280;16713;52.916;12.834;2022-12-11T07:38:01;100542.78;;;-1.10;62.73
29825;BME280;16713;52.916;12.834;2022-12-11T07:40:28;100530.50;;;-1.21;63.48
29825;BME280;16713;52.916;12.834;2022-12-11T07:42:54;100532.88;;;-1.15;63.74
29825;BME280;16713;52.916;12.834;2022-12-11T07:45:21;100530.53;;;-1.26;63.47
29825;BME280;16713;52.916;12.834;2022-12-11T07:47:47;100535.19;;;-1.03;63.61
29825;BME280;16713;52.916;12.834;2022-12-11T07:50:14;100533.19;;;-1.21;63.31
29825;BME280;16713;52.916;12.834;2022-12-11T07:52:40;100533.59;;;-1.04;63.41
29825;BME280;16713;52.916;12.834;2022-12-11T07:55:07;100535.56;;;-1.15;63.17
29825;BME280;16713;52.916;12.834;2022-12-11T07:57:34;100541.44;;;-1.08;63.15
29825;BME280;16713;52.916;12.834;2022-12-11T08:00:00;100544.41;;;-1.09;62.91
29825;BME280;16713;52.916;12.834;2022-12-11T08:02:27;100535.53;;;-1.10;63.68
29825;BME280;16713;52.916;12.834;2022-12-11T08:05:00;100546.38;;;-1.25;63.01
29825;BME280;16713;52.916;12.834;2022-12-11T08:07:27;100544.19;;;-1.18;63.32
29825;BME280;16713;52.916;12.834;2022-12-11T08:09:53;100555.34;;;-1.01;63.07
29825;BME280;16713;52.916;12.834;2022-12-11T08:12:22;100548.53;;;-1.22;62.95
29825;BME280;16713;52.916;12.834;2022-12-11T08:14:49;100552.63;;;-0.96;63.02
29825;BME280;16713;52.916;12.834;2022-12-11T08:17:15;100544.97;;;-1.12;63.36
29825;BME280;16713;52.916;12.834;2022-12-11T08:19:42;100558.25;;;-0.92;63.01
29825;BME280;16713;52.916;12.834;2022-12-11T08:22:08;100550.06;;;-1.11;63.21
29825;BME280;16713;52.916;12.834;2022-12-11T08:24:35;100553.69;;;-0.92;63.22
29825;BME280;16713;52.916;12.834;2022-12-11T08:27:01;100540.91;;;-1.10;63.69
29825;BME280;16713;52.916;12.834;2022-12-11T08:29:28;100549.47;;;-1.03;63.24
29825;BME280;16713;52.916;12.834;2022-12-11T08:31:54;100547.56;;;-1.02;63.52
29825;BME280;16713;52.916;12.834;2022-12-11T08:34:21;100545.19;;;-1.09;63.23
29825;BME280;16713;52.916;12.834;2022-12-11T08:36:47;100553.44;;;-0.95;62.97
29825;BME280;16713;52.916;12.834;2022-12-11T08:39:14;100549.34;;;-0.93;62.96
29825;BME280;16713;52.916;12.834;2022-12-11T08:41:40;100549.56;;;-0.84;62.97
29825;BME280;16713;52.916;12.834;2022-12-11T08:44:10;100546.00;;;-0.79;63.85
29825;BME280;16713;52.916;12.834;2022-12-11T08:46:42;100544.13;;;-0.79;63.40
29825;BME280;16713;52.916;12.834;2022-12-11T08:49:09;100551.44;;;-0.85;63.45
29825;BME280;16713;52.916;12.834;2022-12-11T08:51:35;100552.91;;;-0.97;63.19
29825;BME280;16713;52.916;12.834;2022-12-11T08:54:01;100552.16;;;-0.74;63.38
29825;BME280;16713;52.916;12.834;2022-12-11T08:56:28;100545.13;;;-0.70;62.96
29825;BME280;16713;52.916;12.834;2022-12-11T08:58:58;100546.84;;;-0.79;63.29
29825;BME280;16713;52.916;12.834;2022-12-11T09:01:25;100551.69;;;-0.81;62.94
29825;BME280;16713;52.916;12.834;2022-12-11T09:03:54;100561.50;;;-0.66;63.49
29825;BME280;16713;52.916;12.834;2022-12-11T09:06:23;100565.91;;;-0.75;63.36
29825;BME280;16713;52.916;12.834;2022-12-11T09:08:51;100551.34;;;-0.74;63.17
29825;BME280;16713;52.916;12.834;2022-12-11T09:11:27;100560.44;;;-0.65;62.78
29825;BME280;16713;52.916;12.834;2022-12-11T09:13:54;100561.47;;;-0.61;63.30
29825;BME280;16713;52.916;12.834;2022-12-11T09:16:23;100554.66;;;-0.54;62.84
29825;BME280;16713;52.916;12.834;2022-12-11T09:18:51;100546.38;;;-0.57;63.08
29825;BME280;16713;52.916;12.834;2022-12-11T09:21:20;100546.75;;;-0.69;63.69
29825;BME280;16713;52.916;12.834;2022-12-11T09:23:47;100555.09;;;-0.70;63.04
29825;BME280;16713;52.916;12.834;2022-12-11T09:26:18;100564.38;;;-0.81;63.33
29825;BME280;16713;52.916;12.834;2022-12-11T09:28:45;100563.34;;;-0.62;63.20
29825;BME280;16713;52.916;12.834;2022-12-11T09:31:17;100566.28;;;-0.58;63.37
29825;BME280;16713;52.916;12.834;2022-12-11T09:33:44;100560.81;;;-0.77;63.64
29825;BME280;16713;52.916;12.834;2022-12-11T09:36:11;100549.81;;;-0.80;62.91
29825;BME280;16713;52.916;12.834;2022-12-11T09:38:38;100545.34;;;-0.66;62.82
29825;BME280;16713;52.916;12.834;2022-12-11T09:46:38;100532.66;;;-0.61;63.21
29825;BME280;16713;52.916;12.834;2022-12-11T09:49:22;100535.47;;;-0.47;63.68
29825;BME280;16713;52.916;12.834;2022-12-11T09:52:05;100536.69;;;-0.35;63.81
29825;BME280;16713;52.916;12.834;2022-12-11T09:54:33;100529.97;;;-0.37;62.61
29825;BME280;16713;52.916;12.834;2022-12-11T10:02:29;100519.53;;;-0.20;62.98
29825;BME280;16713;52.916;12.834;2022-12-11T10:07:51;100514.78;;;-0.28;62.72
29825;BME280;16713;52.916;12.834;2022-12-11T10:13:41;100507.69;;;-0.19;62.92
29825;BME280;16713;52.916;12.834;2022-12-11T10:16:34;100509.72;;;-0.11;62.67
29825;BME280;16713;52.916;12.834;2022-12-11T10:19:02;100508.75;;;-0.20;63.07
29825;BME280;16713;52.916;12.834;2022-12-11T10:21:40;100503.75;;;-0.08;62.95
29825;BME280;16713;52.916;12.834;2022-12-11T10:24:21;100497.22;;;-0.02;62.40
29825;BME280;16713;52.916;12.834;2022-12-11T10:27:20;100489.66;;;-0.00;62.90
29825;BME280;16713;52.916;12.834;2022-12-11T10:30:00;100493.63;;;0.02;62.24
29825;BME280;16713;52.916;12.834;2022-12-11T10:32:53;100489.00;;;-0.11;62.40
29825;BME280;16713;52.916;12.834;2022-12-11T10:35:48;100495.84;;;0.00;62.78
29825;BME280;16713;52.916;12.834;2022-12-11T10:38:33;100480.28;;;-0.26;63.41
29825;BME280;16713;52.916;12.834;2022-12-11T10:41:02;100481.25;;;-0.41;63.83
29825;BME280;16713;52.916;12.834;2022-12-11T10:43:38;100482.84;;;-0.16;63.59
29825;BME280;16713;52.916;12.834;2022-12-11T10:46:11;100487.47;;;-0.22;64.05
29825;BME280;16713;52.916;12.834;2022-12-11T10:51:13;100486.78;;;-0.09;62.29
29825;BME280;16713;52.916;12.834;2022-12-11T10:53:41;100484.00;;;-0.22;62.25
29825;BME280;16713;52.916;12.834;2022-12-11T10:56:10;100479.22;;;-0.07;62.90
29825;BME280;16713;52.916;12.834;2022-12-11T10:58:39;100485.44;;;0.12;63.59
29825;BME280;16713;52.916;12.834;2022-12-11T11:01:18;100477.19;;;0.04;62.95
29825;BME280;16713;52.916;12.834;2022-12-11T11:06:20;100481.38;;;0.15;63.21
29825;BME280;16713;52.916;12.834;2022-12-11T11:08:52;100477.56;;;0.16;63.37
29825;BME280;16713;52.916;12.834;2022-12-11T11:11:32;100481.13;;;0.11;63.10
29825;BME280;16713;52.916;12.834;2022-12-11T11:14:19;100467.59;;;0.16;63.09
29825;BME280;16713;52.916;12.834;2022-12-11T11:16:48;100473.28;;;0.15;62.06
29825;BME280;16713;52.916;12.834;2022-12-11T11:19:24;100471.88;;;-0.01;63.12
29825;BME280;16713;52.916;12.834;2022-12-11T11:21:56;100480.56;;;0.14;62.78
29825;BME280;16713;52.916;12.834;2022-12-11T11:29:54;100469.56;;;0.29;62.74
29825;BME280;16713;52.916;12.834;2022-12-11T11:32:29;100461.25;;;0.26;63.73
29825;BME280;16713;52.916;12.834;2022-12-11T11:37:39;100455.84;;;0.26;62.85
29825;BME280;16713;52.916;12.834;2022-12-11T11:40:26;100450.25;;;0.22;63.14
29825;BME280;16713;52.916;12.834;2022-12-11T11:43:39;100446.22;;;0.20;63.36
29825;BME280;16713;52.916;12.834;2022-12-11T11:55:08;100437.28;;;0.24;63.83
29825;BME280;16713;52.916;12.834;2022-12-11T11:57:54;100437.63;;;0.18;64.16
29825;BME280;16713;52.916;12.834;2022-12-11T12:00:24;100434.31;;;0.39;63.46
29825;BME280;16713;52.916;12.834;2022-12-11T12:03:01;100441.03;;;0.23;62.96
29825;BME280;16713;52.916;12.834;2022-12-11T12:17:21;100441.63;;;0.20;64.24
29825;BME280;16713;52.916;12.834;2022-12-11T12:25:09;100444.25;;;0.25;63.93
29825;BME280;16713;52.916;12.834;2022-12-11T12:27:45;100437.38;;;0.33;63.55
29825;BME280;16713;52.916;12.834;2022-12-11T12:30:18;100434.50;;;0.29;64.31
29825;BME280;16713;52.916;12.834;2022-12-11T12:33:05;100423.41;;;0.31;64.43
29825;BME280;16713;52.916;12.834;2022-12-11T12:35:40;100427.13;;;0.35;63.27
29825;BME280;16713;52.916;12.834;2022-12-11T12:48:53;100417.13;;;0.17;64.24
29825;BME280;16713;52.916;12.834;2022-12-11T12:51:22;100425.25;;;0.49;63.97
29825;BME280;16713;52.916;12.834;2022-12-11T12:53:54;100417.97;;;0.49;64.54
29825;BME280;16713;52.916;12.834;2022-12-11T12:56:23;100419.47;;;0.42;64.62
29825;BME280;16713;52.916;12.834;2022-12-11T12:58:51;100415.88;;;0.28;64.77
29825;BME280;16713;52.916;12.834;2022-12-11T13:01:23;100408.13;;;0.08;65.17
29825;BME280;16713;52.916;12.834;2022-12-11T13:04:00;100416.47;;;0.43;63.83
29825;BME280;16713;52.916;12.834;2022-12-11T13:06:44;100410.63;;;0.36;64.39
29825;BME280;16713;52.916;12.834;2022-12-11T13:11:39;100415.38;;;0.44;65.09
29825;BME280;16713;52.916;12.834;2022-12-11T13:14:22;100401.75;;;0.36;64.45
29825;BME280;16713;52.916;12.834;2022-12-11T13:17:19;100411.97;;;0.39;65.84
29825;BME280;16713;52.916;12.834;2022-12-11T13:19:49;100412.94;;;0.29;65.41
29825;BME280;16713;52.916;12.834;2022-12-11T13:22:23;100404.91;;;0.24;65.31
29825;BME280;16713;52.916;12.834;2022-12-11T13:32:30;100403.75;;;0.44;64.84
29825;BME280;16713;52.916;12.834;2022-12-11T13:34:58;100401.34;;;0.29;65.73
29825;BME280;16713;52.916;12.834;2022-12-11T13:37:40;100411.38;;;0.42;65.09
29825;BME280;16713;52.916;12.834;2022-12-11T13:40:33;100399.94;;;0.31;65.22
29825;BME280;16713;52.916;12.834;2022-12-11T13:43:05;100401.03;;;0.30;65.21
29825;BME280;16713;52.916;12.834;2022-12-11T13:48:02;100405.69;;;0.25;66.10
29825;BME280;16713;52.916;12.834;2022-12-11T13:50:32;100404.94;;;0.38;65.55
29825;BME280;16713;52.916;12.834;2022-12-11T13:53:01;100404.88;;;0.43;66.95
29825;BME280;16713;52.916;12.834;2022-12-11T13:55:32;100411.09;;;0.57;65.23
29825;BME280;16713;52.916;12.834;2022-12-11T13:57:59;100410.81;;;0.58;66.09
29825;BME280;16713;52.916;12.834;2022-12-11T14:00:28;100419.94;;;0.63;66.58
29825;BME280;16713;52.916;12.834;2022-12-11T14:03:01;100418.78;;;0.50;66.43
29825;BME280;16713;52.916;12.834;2022-12-11T14:05:30;100414.16;;;0.37;65.75
29825;BME280;16713;52.916;12.834;2022-12-11T14:07:58;100416.00;;;0.55;65.56
29825;BME280;16713;52.916;12.834;2022-12-11T14:10:31;100418.34;;;0.62;66.49
29825;BME280;16713;52.916;12.834;2022-12-11T14:15:26;100418.91;;;0.58;66.21
29825;BME280;16713;52.916;12.834;2022-12-11T14:17:54;100417.75;;;0.46;66.05
29825;BME280;16713;52.916;12.834;2022-12-11T14:20:27;100425.75;;;0.37;67.04
29825;BME280;16713;52.916;12.834;2022-12-11T14:23:25;100421.81;;;0.30;66.10
29825;BME280;16713;52.916;12.834;2022-12-11T14:28:24;100406.88;;;0.19;67.14
29825;BME280;16713;52.916;12.834;2022-12-11T14:30:55;100413.72;;;0.30;66.46
29825;BME280;16713;52.916;12.834;2022-12-11T14:33:30;100413.38;;;0.18;66.64
29825;BME280;16713;52.916;12.834;2022-12-11T14:35:59;100415.16;;;0.41;66.78
29825;BME280;16713;52.916;12.834;2022-12-11T14:38:41;100412.00;;;0.52;67.22
29825;BME280;16713;52.916;12.834;2022-12-11T14:41:18;100409.66;;;0.46;67.23